createdAt,value
2022-08-25T00:01:49.897Z,2.67
2022-08-25T00:04:18.574Z,3.40
2022-08-25T00:06:46.788Z,3.30
2022-08-25T00:09:16.255Z,2.58
2022-08-25T00:11:43.966Z,3.00
2022-08-25T00:14:18.242Z,2.78
2022-08-25T00:16:45.371Z,2.72
2022-08-25T00:19:16.479Z,3.20
2022-08-25T00:21:43.915Z,2.92
2022-08-25T00:24:12.233Z,3.15
2022-08-25T00:26:42.010Z,2.38
2022-08-25T00:29:10.357Z,2.83
2022-08-25T00:31:39.065Z,2.90
2022-08-25T00:34:12.166Z,3.15
2022-08-25T00:36:39.566Z,3.03
2022-08-25T00:39:08.807Z,3.00
2022-08-25T00:41:36.584Z,2.65
2022-08-25T00:44:06.678Z,3.13
2022-08-25T00:46:46.372Z,2.97
2022-08-25T00:49:26.264Z,3.05
2022-08-25T00:52:08.079Z,3.13
2022-08-25T00:54:45.686Z,2.75
2022-08-25T00:57:15.313Z,2.80
2022-08-25T00:59:44.426Z,3.15
2022-08-25T01:02:14.444Z,3.50
2022-08-25T01:04:48.708Z,2.85
2022-08-25T01:07:19.362Z,3.58
2022-08-25T01:09:49.770Z,2.70
2022-08-25T01:12:16.604Z,2.70
2022-08-25T01:14:46.561Z,3.08
2022-08-25T01:17:14.433Z,2.80
2022-08-25T01:19:41.977Z,2.72
2022-08-25T01:22:10.549Z,3.00
2022-08-25T01:24:59.730Z,2.80
2022-08-25T01:27:26.791Z,2.50
2022-08-25T01:29:53.968Z,2.65
2022-08-25T01:32:20.805Z,2.45
2022-08-25T01:34:47.569Z,3.08
2022-08-25T01:37:16.596Z,2.78
2022-08-25T01:39:43.799Z,2.92
2022-08-25T01:42:54.587Z,2.90
2022-08-25T01:45:22.061Z,2.85
2022-08-25T01:47:48.831Z,3.33
2022-08-25T01:50:15.548Z,2.70
2022-08-25T01:52:47.075Z,2.95
2022-08-25T01:55:14.100Z,3.10
2022-08-25T01:57:40.816Z,3.13
2022-08-25T02:00:10.273Z,2.90
2022-08-25T02:02:42.814Z,3.33
2022-08-25T02:05:14.043Z,3.17
2022-08-25T02:07:42.457Z,2.65
2022-08-25T02:10:11.958Z,2.45
2022-08-25T02:12:39.011Z,3.10
2022-08-25T02:15:07.480Z,3.20
2022-08-25T02:17:36.732Z,3.10
2022-08-25T02:20:06.700Z,3.10
2022-08-25T02:22:33.406Z,3.38
2022-08-25T02:25:00.183Z,2.10
2022-08-25T02:27:26.966Z,2.80
2022-08-25T02:29:53.872Z,2.97
2022-08-25T02:32:20.639Z,2.72
2022-08-25T02:34:48.351Z,3.20
2022-08-25T02:37:15.286Z,2.28
2022-08-25T02:39:42.099Z,2.67
2022-08-25T02:42:08.822Z,2.80
2022-08-25T02:44:35.594Z,2.58
2022-08-25T02:47:03.031Z,3.03
2022-08-25T02:49:30.205Z,2.63
2022-08-25T02:51:58.645Z,2.80
2022-08-25T02:54:26.057Z,2.90
2022-08-25T02:56:52.844Z,2.67
2022-08-25T02:59:19.667Z,2.60
2022-08-25T03:01:46.378Z,2.50
2022-08-25T03:04:13.202Z,2.53
2022-08-25T03:06:40.838Z,2.58
2022-08-25T03:09:07.603Z,3.00
2022-08-25T03:11:34.590Z,2.70
2022-08-25T03:14:01.400Z,3.20
2022-08-25T03:16:28.305Z,2.58
2022-08-25T03:18:56.121Z,2.63
2022-08-25T03:21:22.834Z,2.67
2022-08-25T03:23:49.544Z,3.30
2022-08-25T03:26:34.808Z,2.90
2022-08-25T03:29:05.066Z,3.03
2022-08-25T03:31:33.407Z,3.15
2022-08-25T03:34:01.103Z,3.17
2022-08-25T03:36:28.231Z,3.00
2022-08-25T03:38:55.467Z,2.50
2022-08-25T03:41:32.539Z,3.50
2022-08-25T03:44:00.153Z,3.22
2022-08-25T03:46:43.939Z,3.33
2022-08-25T03:49:14.157Z,2.97
2022-08-25T03:51:47.340Z,2.78
2022-08-25T03:54:16.532Z,2.97
2022-08-25T03:56:43.462Z,2.92
2022-08-25T03:59:10.309Z,2.85
2022-08-25T04:01:42.641Z,2.80
2022-08-25T04:04:10.888Z,3.05
2022-08-25T04:06:39.782Z,2.78
2022-08-25T04:09:07.070Z,2.78
2022-08-25T04:11:34.177Z,2.80
2022-08-25T04:14:02.331Z,2.95
2022-08-25T04:16:31.990Z,3.20
2022-08-25T04:19:02.145Z,3.50
2022-08-25T04:21:29.617Z,3.73
2022-08-25T04:23:56.790Z,3.30
2022-08-25T04:26:28.080Z,3.22
2022-08-25T04:28:57.002Z,2.95
2022-08-25T04:31:23.834Z,2.97
2022-08-25T04:33:50.649Z,2.80
2022-08-25T04:36:18.655Z,2.58
2022-08-25T04:38:46.695Z,2.58
2022-08-25T04:41:16.252Z,2.58
2022-08-25T04:43:44.795Z,2.90
2022-08-25T04:46:20.247Z,2.85
2022-08-25T04:48:49.005Z,2.90
2022-08-25T04:51:20.242Z,2.95
2022-08-25T04:53:47.004Z,3.25
2022-08-25T04:56:16.377Z,2.80
2022-08-25T04:58:43.424Z,2.97
2022-08-25T05:01:17.093Z,3.22
2022-08-25T05:03:46.532Z,3.00
2022-08-25T05:06:16.033Z,2.85
2022-08-25T05:08:46.192Z,3.17
2022-08-25T05:11:16.551Z,2.90
2022-08-25T05:13:51.172Z,3.08
2022-08-25T05:16:19.961Z,2.90
2022-08-25T05:18:47.314Z,2.70
2022-08-25T05:21:18.259Z,3.03
2022-08-25T05:23:46.464Z,2.88
2022-08-25T05:26:19.715Z,2.90
2022-08-25T05:28:49.250Z,4.75
2022-08-25T05:31:16.517Z,2.90
2022-08-25T05:33:43.326Z,3.08
2022-08-25T05:36:12.999Z,3.00
2022-08-25T05:38:40.970Z,2.90
2022-08-25T05:41:11.497Z,3.13
2022-08-25T05:43:40.248Z,3.20
2022-08-25T05:46:08.307Z,2.92
2022-08-25T05:48:35.700Z,2.75
2022-08-25T05:51:04.079Z,2.85
2022-08-25T05:53:33.720Z,3.08
2022-08-25T05:56:01.747Z,3.72
2022-08-25T05:58:29.989Z,3.20
2022-08-25T06:00:58.463Z,3.10
2022-08-25T06:03:25.250Z,2.72
2022-08-25T06:05:51.983Z,3.00
2022-08-25T06:08:19.865Z,3.08
2022-08-25T06:10:52.639Z,3.33
2022-08-25T06:13:19.317Z,3.47
2022-08-25T06:16:01.817Z,2.92
2022-08-25T06:18:28.522Z,3.15
2022-08-25T06:20:55.258Z,3.45
2022-08-25T06:23:21.960Z,3.47
2022-08-25T06:25:53.726Z,3.17
2022-08-25T06:28:21.102Z,3.30
2022-08-25T06:30:48.316Z,3.15
2022-08-25T06:33:15.515Z,3.20
2022-08-25T06:35:43.969Z,3.20
2022-08-25T06:38:11.499Z,3.08
2022-08-25T06:40:38.417Z,3.85
2022-08-25T06:43:08.723Z,3.42
2022-08-25T06:45:35.579Z,3.30
2022-08-25T06:48:02.392Z,3.30
2022-08-25T06:50:29.156Z,3.17
2022-08-25T06:52:55.815Z,3.58
2022-08-25T06:55:22.582Z,3.25
2022-08-25T06:57:53.322Z,3.00
2022-08-25T07:00:22.860Z,2.92
2022-08-25T07:02:58.477Z,2.85
2022-08-25T07:05:33.540Z,3.58
2022-08-25T07:08:01.108Z,3.22
2022-08-25T07:10:27.902Z,3.47
2022-08-25T07:12:58.364Z,2.95
2022-08-25T07:15:25.218Z,3.08
2022-08-25T07:17:51.910Z,3.25
2022-08-25T07:20:19.258Z,3.72
2022-08-25T07:22:46.523Z,3.63
2022-08-25T07:25:13.703Z,3.05
2022-08-25T07:27:42.355Z,3.22
2022-08-25T07:30:11.457Z,2.95
2022-08-25T07:32:42.238Z,3.33
2022-08-25T07:35:19.107Z,3.00
2022-08-25T07:37:52.211Z,3.08
2022-08-25T07:40:29.461Z,3.55
2022-08-25T07:42:58.599Z,3.20
2022-08-25T07:45:30.561Z,3.38
2022-08-25T07:48:09.166Z,3.38
2022-08-25T07:50:38.852Z,3.90
2022-08-25T07:53:06.828Z,3.40
2022-08-25T07:55:36.356Z,3.95
2022-08-25T07:58:05.368Z,3.58
2022-08-25T08:00:34.176Z,3.97
2022-08-25T08:03:05.004Z,2.95
2022-08-25T08:05:32.638Z,3.63
2022-08-25T08:08:00.206Z,3.28
2022-08-25T08:10:53.484Z,4.07
2022-08-25T08:13:18.030Z,3.50
2022-08-25T08:15:45.525Z,2.90
2022-08-25T08:18:12.264Z,4.10
2022-08-25T08:20:42.596Z,3.80
2022-08-25T08:23:11.062Z,3.90
2022-08-25T08:25:37.851Z,3.22
2022-08-25T08:28:04.588Z,3.20
2022-08-25T08:30:36.427Z,3.20
2022-08-25T08:33:13.036Z,3.33
2022-08-25T08:35:41.507Z,3.00
2022-08-25T08:38:14.721Z,3.10
2022-08-25T08:41:22.878Z,3.67
2022-08-25T08:43:56.683Z,2.97
2022-08-25T08:46:26.155Z,3.20
2022-08-25T08:49:37.794Z,3.00
2022-08-25T08:52:06.899Z,3.53
2022-08-25T08:54:38.143Z,2.95
2022-08-25T08:57:22.796Z,2.63
2022-08-25T08:59:55.095Z,2.55
2022-08-25T09:02:38.813Z,3.38
2022-08-25T09:05:19.972Z,2.55
2022-08-25T09:08:05.091Z,2.80
2022-08-25T09:10:51.871Z,2.67
2022-08-25T09:13:38.879Z,2.72
2022-08-25T09:16:50.581Z,2.90
2022-08-25T09:19:54.615Z,2.75
2022-08-25T09:22:47.014Z,2.55
2022-08-25T09:28:29.031Z,2.65
2022-08-25T09:30:59.015Z,2.75
2022-08-25T09:33:27.667Z,2.28
2022-08-25T09:35:57.533Z,2.20
2022-08-25T09:38:25.972Z,2.53
2022-08-25T09:40:56.383Z,2.38
2022-08-25T09:43:29.558Z,2.20
2022-08-25T09:46:14.671Z,2.20
2022-08-25T09:48:55.881Z,2.03
2022-08-25T09:51:42.294Z,2.40
2022-08-25T09:54:12.913Z,1.88
2022-08-25T09:56:54.782Z,1.90
2022-08-25T09:59:36.457Z,2.28
2022-08-25T10:02:16.390Z,2.40
2022-08-25T10:04:43.213Z,2.42
2022-08-25T10:07:28.375Z,2.30
2022-08-25T10:10:04.369Z,2.28
2022-08-25T10:12:42.839Z,2.40
2022-08-25T10:15:29.921Z,1.70
2022-08-25T10:18:17.472Z,2.28
2022-08-25T10:21:00.535Z,2.13
2022-08-25T10:23:27.895Z,2.08
2022-08-25T10:26:05.283Z,2.08
2022-08-25T10:28:54.541Z,2.15
2022-08-25T10:31:51.797Z,2.20
2022-08-25T10:34:51.889Z,2.35
2022-08-25T10:37:38.017Z,1.90
2022-08-25T10:40:37.887Z,2.20
2022-08-25T10:43:27.483Z,2.03
2022-08-25T10:46:02.405Z,1.63
2022-08-25T10:48:42.738Z,2.10
2022-08-25T10:51:46.053Z,2.22
2022-08-25T10:54:34.299Z,1.95
2022-08-25T10:57:12.403Z,1.73
2022-08-25T10:59:40.217Z,1.70
2022-08-25T11:02:41.383Z,1.58
2022-08-25T11:05:44.356Z,1.70
2022-08-25T11:08:37.649Z,1.80
2022-08-25T11:11:09.418Z,1.80
2022-08-25T11:13:56.682Z,1.38
2022-08-25T11:16:57.352Z,1.92
2022-08-25T11:19:41.961Z,1.75
2022-08-25T11:22:32.779Z,1.70
2022-08-25T11:25:26.170Z,1.55
2022-08-25T11:28:23.779Z,1.85
2022-08-25T11:30:52.910Z,1.67
2022-08-25T11:33:20.197Z,1.65
2022-08-25T11:35:55.360Z,1.90
2022-08-25T11:38:43.298Z,1.55
2022-08-25T11:41:39.301Z,1.40
2022-08-25T11:44:30.687Z,1.73
2022-08-25T11:47:00.413Z,1.35
2022-08-25T11:49:36.212Z,1.55
2022-08-25T11:52:06.233Z,1.50
2022-08-25T11:54:42.589Z,1.60
2022-08-25T11:57:19.529Z,1.67
2022-08-25T11:59:55.262Z,1.60
2022-08-25T12:02:36.580Z,1.80
2022-08-25T12:05:23.317Z,1.50
2022-08-25T12:08:11.579Z,1.85
2022-08-25T12:11:01.341Z,1.50
2022-08-25T12:13:47.572Z,1.60
2022-08-25T12:16:38.532Z,1.60
2022-08-25T12:19:35.988Z,1.55
2022-08-25T12:22:03.604Z,1.83
2022-08-25T12:24:47.863Z,1.80
2022-08-25T12:27:43.729Z,1.90
2022-08-25T12:30:38.388Z,1.80
2022-08-25T12:33:20.870Z,1.80
2022-08-25T12:35:58.461Z,1.40
2022-08-25T12:38:34.961Z,1.90
2022-08-25T12:41:10.778Z,1.80
2022-08-25T12:43:42.220Z,1.65
2022-08-25T12:46:30.347Z,1.88
2022-08-25T12:49:04.629Z,1.80
2022-08-25T12:51:40.412Z,2.00
2022-08-25T12:54:47.682Z,1.73
2022-08-25T12:57:31.973Z,1.80
2022-08-25T13:00:05.511Z,1.77
2022-08-25T13:03:10.189Z,1.88
2022-08-25T13:05:58.390Z,1.80
2022-08-25T13:08:58.611Z,2.03
2022-08-25T13:11:49.579Z,2.05
2022-08-25T13:14:38.117Z,1.60
2022-08-25T13:17:06.201Z,1.85
2022-08-25T13:19:34.756Z,1.60
2022-08-25T13:22:15.413Z,1.35
2022-08-25T13:27:24.990Z,1.63
2022-08-25T13:29:55.025Z,1.80
2022-08-25T13:32:35.519Z,1.73
2022-08-25T13:35:26.581Z,1.88
2022-08-25T13:38:15.839Z,1.73
2022-08-25T13:40:43.231Z,1.80
2022-08-25T13:43:13.842Z,1.90
2022-08-25T13:45:45.401Z,2.00
2022-08-25T13:48:22.665Z,1.90
2022-08-25T13:50:51.875Z,2.10
2022-08-25T13:53:25.235Z,1.70
2022-08-25T13:55:57.058Z,1.60
2022-08-25T13:58:45.027Z,1.75
2022-08-25T14:01:22.443Z,1.80
2022-08-25T14:04:25.510Z,2.00
2022-08-25T14:07:20.736Z,1.92
2022-08-25T14:09:53.969Z,2.13
2022-08-25T14:12:29.866Z,1.73
2022-08-25T14:15:02.710Z,1.85
2022-08-25T14:17:39.478Z,1.73
2022-08-25T14:20:28.961Z,1.80
2022-08-25T14:23:03.451Z,1.90
2022-08-25T14:25:35.152Z,1.50
2022-08-25T14:28:07.531Z,1.70
2022-08-25T14:30:38.903Z,1.58
2022-08-25T14:33:06.965Z,2.20
2022-08-25T14:35:34.530Z,1.55
2022-08-25T14:38:08.506Z,1.92
2022-08-25T14:40:36.508Z,1.50
2022-08-25T14:43:03.301Z,1.67
2022-08-25T14:45:31.316Z,1.52
2022-08-25T14:48:10.603Z,1.70
2022-08-25T14:50:41.213Z,1.67
2022-08-25T14:53:11.333Z,1.63
2022-08-25T14:55:38.833Z,1.52
2022-08-25T14:58:06.985Z,1.77
2022-08-25T15:00:37.439Z,1.48
2022-08-25T15:03:04.724Z,1.75
2022-08-25T15:05:31.971Z,1.60
2022-08-25T15:08:17.152Z,1.50
2022-08-25T15:10:44.357Z,1.58
2022-08-25T15:13:11.084Z,1.77
2022-08-25T15:15:52.992Z,1.33
2022-08-25T15:18:21.487Z,1.50
2022-08-25T15:20:49.921Z,1.08
2022-08-25T15:23:18.528Z,1.20
2022-08-25T15:25:47.442Z,1.35
2022-08-25T15:28:17.071Z,1.90
2022-08-25T15:30:45.894Z,1.33
2022-08-25T15:33:13.580Z,1.73
2022-08-25T15:35:41.481Z,1.40
2022-08-25T15:38:10.217Z,1.40
2022-08-25T15:40:38.988Z,1.52
2022-08-25T15:43:06.157Z,1.67
2022-08-25T15:45:35.856Z,1.52
2022-08-25T15:48:03.324Z,1.40
2022-08-25T15:50:30.258Z,1.30
2022-08-25T15:52:57.782Z,1.70
2022-08-25T15:55:24.929Z,1.48
2022-08-25T15:57:51.739Z,1.50
2022-08-25T16:00:19.139Z,1.65
2022-08-25T16:02:46.299Z,1.30
2022-08-25T16:05:13.814Z,1.02
2022-08-25T16:07:45.810Z,2.50
2022-08-25T16:10:13.553Z,1.40
2022-08-25T16:12:42.555Z,1.42
2022-08-25T16:15:12.095Z,1.50
2022-08-25T16:17:40.541Z,1.25
2022-08-25T16:25:08.317Z,1.20
2022-08-25T16:27:38.557Z,1.33
2022-08-25T16:30:07.635Z,1.20
2022-08-25T16:32:34.966Z,1.30
2022-08-25T16:35:03.135Z,1.30
2022-08-25T16:37:29.956Z,1.38
2022-08-25T16:39:57.171Z,1.20
2022-08-25T16:42:24.274Z,1.38
2022-08-25T16:44:54.124Z,1.25
2022-08-25T16:47:25.234Z,1.23
2022-08-25T16:49:54.045Z,1.45
2022-08-25T16:52:40.550Z,1.80
2022-08-25T16:55:14.689Z,1.27
2022-08-25T16:57:45.919Z,1.17
2022-08-25T17:00:18.133Z,1.38
2022-08-25T17:02:45.959Z,1.30
2022-08-25T17:05:14.510Z,1.30
2022-08-25T17:07:41.699Z,1.38
2022-08-25T17:10:10.058Z,1.10
2022-08-25T17:12:39.618Z,2.92
2022-08-25T17:15:07.610Z,1.45
2022-08-25T17:17:36.367Z,1.70
2022-08-25T17:20:04.990Z,1.10
2022-08-25T17:22:31.967Z,1.20
2022-08-25T17:24:59.182Z,1.25
2022-08-25T17:27:26.610Z,1.25
2022-08-25T17:29:53.527Z,1.10
2022-08-25T17:32:20.211Z,1.38
2022-08-25T17:34:46.975Z,1.20
2022-08-25T17:37:13.684Z,1.15
2022-08-25T17:39:41.031Z,1.45
2022-08-25T17:42:07.750Z,1.30
2022-08-25T17:44:35.297Z,1.15
2022-08-25T17:47:04.276Z,1.23
2022-08-25T17:49:32.045Z,1.23
2022-08-25T17:51:59.157Z,1.50
2022-08-25T17:54:25.828Z,1.50
2022-08-25T17:56:52.522Z,1.35
2022-08-25T17:59:19.670Z,1.50
2022-08-25T18:01:46.701Z,1.73
2022-08-25T18:04:17.774Z,1.67
2022-08-25T18:06:47.464Z,1.67
2022-08-25T18:09:15.371Z,1.30
2022-08-25T18:11:42.397Z,2.72
2022-08-25T18:14:11.281Z,3.50
2022-08-25T18:16:38.758Z,1.65
2022-08-25T18:19:06.492Z,1.70
2022-08-25T18:21:36.811Z,1.67
2022-08-25T18:24:04.210Z,1.30
2022-08-25T18:26:31.030Z,1.70
2022-08-25T18:28:59.283Z,1.40
2022-08-25T18:31:26.303Z,1.33
2022-08-25T18:33:53.052Z,1.70
2022-08-25T18:36:20.713Z,1.50
2022-08-25T18:39:06.811Z,1.40
2022-08-25T18:41:36.636Z,1.48
2022-08-25T18:44:06.425Z,1.67
2022-08-25T18:46:33.384Z,1.90
2022-08-25T18:49:01.264Z,1.30
2022-08-25T18:51:27.990Z,1.30
2022-08-25T18:54:01.076Z,1.42
2022-08-25T18:56:28.678Z,1.50
2022-08-25T18:58:55.965Z,1.85
2022-08-25T19:01:23.272Z,1.45
2022-08-25T19:03:50.269Z,1.63
2022-08-25T19:06:17.546Z,1.48
2022-08-25T19:08:46.286Z,1.40
2022-08-25T19:11:13.053Z,1.60
2022-08-25T19:13:40.476Z,1.48
2022-08-25T19:16:12.814Z,1.80
2022-08-25T19:18:41.685Z,2.40
2022-08-25T19:21:09.314Z,1.85
2022-08-25T19:23:38.036Z,1.75
2022-08-25T19:26:13.787Z,1.50
2022-08-25T19:28:45.547Z,2.00
2022-08-25T19:31:15.339Z,2.95
2022-08-25T19:33:45.961Z,2.05
2022-08-25T19:36:13.035Z,2.00
2022-08-25T19:38:40.189Z,2.00
2022-08-25T19:41:10.524Z,1.88
2022-08-25T19:43:56.322Z,1.60
2022-08-25T19:46:36.225Z,1.70
2022-08-25T19:49:10.397Z,1.83
2022-08-25T19:51:41.047Z,1.90
2022-08-25T19:54:16.724Z,1.70
2022-08-25T19:56:54.430Z,1.63
2022-08-25T19:59:40.420Z,2.00
2022-08-25T20:02:13.341Z,1.42
2022-08-25T20:04:49.765Z,1.92
2022-08-25T20:07:18.921Z,2.08
2022-08-25T20:09:45.683Z,2.00
2022-08-25T20:12:16.353Z,2.00
2022-08-25T20:14:44.775Z,2.58
2022-08-25T20:17:14.495Z,2.08
2022-08-25T20:19:50.217Z,2.20
2022-08-25T20:22:18.127Z,2.00
2022-08-25T20:24:48.668Z,2.38
2022-08-25T20:27:21.028Z,2.60
2022-08-25T20:29:49.615Z,2.97
2022-08-25T20:32:19.351Z,3.47
2022-08-25T20:34:47.351Z,2.17
2022-08-25T20:37:14.432Z,3.17
2022-08-25T20:39:42.217Z,3.55
2022-08-25T20:42:08.951Z,3.08
2022-08-25T20:44:42.089Z,2.95
2022-08-25T20:47:10.442Z,2.80
2022-08-25T20:49:39.469Z,2.40
2022-08-25T20:52:07.475Z,2.60
2022-08-25T20:54:34.419Z,2.40
2022-08-25T20:57:02.726Z,2.50
2022-08-25T20:59:29.822Z,2.35
2022-08-25T21:01:56.956Z,2.30
2022-08-25T21:04:26.517Z,3.10
2022-08-25T21:06:53.364Z,2.60
2022-08-25T21:09:22.896Z,2.58
2022-08-25T21:11:53.254Z,2.33
2022-08-25T21:14:21.478Z,2.73
2022-08-25T21:16:48.888Z,2.80
2022-08-25T21:19:26.701Z,2.58
2022-08-25T21:21:59.596Z,3.40
2022-08-25T21:24:28.117Z,2.33
2022-08-25T21:26:57.960Z,3.08
2022-08-25T21:29:28.428Z,2.22
2022-08-25T21:31:58.592Z,3.35
2022-08-25T21:34:25.829Z,2.75
2022-08-25T21:36:57.655Z,2.60
2022-08-25T21:39:27.396Z,3.08
2022-08-25T21:41:55.218Z,2.40
2022-08-25T21:44:22.328Z,3.08
2022-08-25T21:46:53.773Z,2.47
2022-08-25T21:49:22.486Z,2.50
2022-08-25T21:51:59.337Z,2.72
2022-08-25T21:54:28.794Z,2.80
2022-08-25T21:57:00.000Z,2.78
2022-08-25T21:59:35.158Z,2.55
2022-08-25T22:02:05.839Z,2.67
2022-08-25T22:04:33.087Z,2.47
2022-08-25T22:07:00.757Z,3.00
2022-08-25T22:09:29.595Z,2.90
2022-08-25T22:11:56.860Z,2.88
2022-08-25T22:14:26.054Z,3.08
2022-08-25T22:16:54.083Z,2.70
2022-08-25T22:19:22.796Z,2.65
2022-08-25T22:21:51.236Z,2.80
2022-08-25T22:24:18.665Z,2.53
2022-08-25T22:26:47.767Z,3.22
2022-08-25T22:29:25.046Z,3.17
2022-08-25T22:31:54.116Z,3.00
2022-08-25T22:34:31.679Z,2.90
2022-08-25T22:37:00.395Z,2.70
2022-08-25T22:39:28.157Z,2.97
2022-08-25T22:41:55.463Z,3.30
2022-08-25T22:44:23.304Z,3.00
2022-08-25T22:46:50.056Z,3.03
2022-08-25T22:49:16.895Z,2.78
2022-08-25T22:51:44.457Z,2.75
2022-08-25T22:54:15.041Z,2.90
2022-08-25T22:56:42.359Z,2.30
2022-08-25T22:59:12.416Z,2.97
2022-08-25T23:01:39.740Z,3.10
2022-08-25T23:04:07.544Z,3.38
2022-08-25T23:06:34.879Z,2.90
2022-08-25T23:09:04.044Z,3.50
2022-08-25T23:11:31.333Z,3.25
2022-08-25T23:14:05.510Z,2.75
2022-08-25T23:16:33.108Z,3.55
2022-08-25T23:19:00.602Z,3.50
2022-08-25T23:21:46.648Z,3.13
2022-08-25T23:24:14.935Z,3.30
2022-08-25T23:26:57.646Z,3.20
2022-08-25T23:29:25.254Z,3.15
2022-08-25T23:31:52.134Z,3.40
2022-08-25T23:34:21.516Z,3.20
2022-08-25T23:36:48.981Z,3.47
2022-08-25T23:39:16.011Z,3.65
2022-08-25T23:41:42.751Z,3.45
2022-08-25T23:44:11.520Z,3.00
2022-08-25T23:46:39.308Z,2.85
2022-08-25T23:49:08.242Z,2.97
2022-08-25T23:51:38.011Z,3.70
2022-08-25T23:54:09.199Z,2.90
2022-08-25T23:56:44.615Z,2.90
2022-08-25T23:59:13.048Z,3.38
